sensor_id;sensor_type;location;lat;lon;timestamp;temperature;humidity
47338;DHT22;33069;51.970;5.892;2023-09-19T00:00:01;14.50;83.30
47338;DHT22;33069;51.970;5.892;2023-09-19T00:02:56;14.60;83.30
47338;DHT22;33069;51.970;5.892;2023-09-19T00:05:44;14.60;83.60
47338;DHT22;33069;51.970;5.892;2023-09-19T00:08:31;14.60;83.90
47338;DHT22;33069;51.970;5.892;2023-09-19T00:11:19;14.70;84.10
47338;DHT22;33069;51.970;5.892;2023-09-19T00:14:05;14.70;84.20
47338;DHT22;33069;51.970;5.892;2023-09-19T00:16:53;14.70;84.30
47338;DHT22;33069;51.970;5.892;2023-09-19T00:19:40;14.70;84.60
47338;DHT22;33069;51.970;5.892;2023-09-19T00:22:28;14.70;84.80
47338;DHT22;33069;51.970;5.892;2023-09-19T00:25:14;14.70;85.20
47338;DHT22;33069;51.970;5.892;2023-09-19T00:28:01;14.80;85.50
47338;DHT22;33069;51.970;5.892;2023-09-19T00:30:47;14.80;85.80
47338;DHT22;33069;51.970;5.892;2023-09-19T00:33:36;14.90;86.00
47338;DHT22;33069;51.970;5.892;2023-09-19T00:36:22;14.80;86.20
47338;DHT22;33069;51.970;5.892;2023-09-19T00:39:08;14.90;86.30
47338;DHT22;33069;51.970;5.892;2023-09-19T00:41:56;14.90;86.40
47338;DHT22;33069;51.970;5.892;2023-09-19T00:44:42;14.90;86.50
47338;DHT22;33069;51.970;5.892;2023-09-19T00:47:28;14.80;86.60
47338;DHT22;33069;51.970;5.892;2023-09-19T00:50:18;14.90;86.50
47338;DHT22;33069;51.970;5.892;2023-09-19T00:53:04;14.80;86.40
47338;DHT22;33069;51.970;5.892;2023-09-19T00:55:53;14.90;86.40
47338;DHT22;33069;51.970;5.892;2023-09-19T00:58:39;14.80;86.30
47338;DHT22;33069;51.970;5.892;2023-09-19T01:01:26;14.90;86.20
47338;DHT22;33069;51.970;5.892;2023-09-19T01:04:12;14.90;86.10
47338;DHT22;33069;51.970;5.892;2023-09-19T01:06:58;14.90;86.20
47338;DHT22;33069;51.970;5.892;2023-09-19T01:09:44;14.90;86.00
47338;DHT22;33069;51.970;5.892;2023-09-19T01:15:55;14.80;86.20
47338;DHT22;33069;51.970;5.892;2023-09-19T01:22:05;14.70;86.70
47338;DHT22;33069;51.970;5.892;2023-09-19T01:25:26;14.70;86.70
47338;DHT22;33069;51.970;5.892;2023-09-19T01:31:34;14.70;86.60
47338;DHT22;33069;51.970;5.892;2023-09-19T01:34:23;14.70;86.50
47338;DHT22;33069;51.970;5.892;2023-09-19T01:37:09;14.60;86.50
47338;DHT22;33069;51.970;5.892;2023-09-19T01:40:01;14.70;86.40
47338;DHT22;33069;51.970;5.892;2023-09-19T01:43:19;14.60;86.10
47338;DHT22;33069;51.970;5.892;2023-09-19T01:46:35;14.70;85.50
47338;DHT22;33069;51.970;5.892;2023-09-19T01:49:55;14.70;85.20
47338;DHT22;33069;51.970;5.892;2023-09-19T01:52:48;14.80;84.60
47338;DHT22;33069;51.970;5.892;2023-09-19T01:55:40;14.80;83.90
47338;DHT22;33069;51.970;5.892;2023-09-19T01:58:43;14.80;83.60
47338;DHT22;33069;51.970;5.892;2023-09-19T02:01:31;14.80;83.30
47338;DHT22;33069;51.970;5.892;2023-09-19T02:04:17;14.80;83.00
47338;DHT22;33069;51.970;5.892;2023-09-19T02:07:03;14.80;82.90
47338;DHT22;33069;51.970;5.892;2023-09-19T02:09:51;14.70;82.80
47338;DHT22;33069;51.970;5.892;2023-09-19T02:12:37;14.70;82.60
47338;DHT22;33069;51.970;5.892;2023-09-19T02:15:24;14.70;82.40
47338;DHT22;33069;51.970;5.892;2023-09-19T02:18:10;14.50;82.40
47338;DHT22;33069;51.970;5.892;2023-09-19T02:21:01;14.50;82.40
47338;DHT22;33069;51.970;5.892;2023-09-19T02:23:47;14.40;82.50
47338;DHT22;33069;51.970;5.892;2023-09-19T02:26:33;14.40;82.40
47338;DHT22;33069;51.970;5.892;2023-09-19T02:29:21;14.30;82.40
47338;DHT22;33069;51.970;5.892;2023-09-19T02:32:08;14.30;81.70
47338;DHT22;33069;51.970;5.892;2023-09-19T02:34:57;14.30;81.60
47338;DHT22;33069;51.970;5.892;2023-09-19T02:37:50;14.30;81.60
47338;DHT22;33069;51.970;5.892;2023-09-19T02:40:36;14.20;81.70
47338;DHT22;33069;51.970;5.892;2023-09-19T02:43:23;14.20;81.70
47338;DHT22;33069;51.970;5.892;2023-09-19T02:46:09;14.10;81.50
47338;DHT22;33069;51.970;5.892;2023-09-19T02:48:56;14.20;81.20
47338;DHT22;33069;51.970;5.892;2023-09-19T02:51:42;14.10;81.20
47338;DHT22;33069;51.970;5.892;2023-09-19T02:54:28;14.10;81.20
47338;DHT22;33069;51.970;5.892;2023-09-19T02:57:14;14.10;80.90
47338;DHT22;33069;51.970;5.892;2023-09-19T03:00:03;14.00;80.90
47338;DHT22;33069;51.970;5.892;2023-09-19T03:02:54;14.00;81.10
47338;DHT22;33069;51.970;5.892;2023-09-19T03:05:40;13.90;81.10
47338;DHT22;33069;51.970;5.892;2023-09-19T03:08:26;13.90;81.20
47338;DHT22;33069;51.970;5.892;2023-09-19T03:11:12;13.80;81.40
47338;DHT22;33069;51.970;5.892;2023-09-19T03:14:00;13.80;81.60
47338;DHT22;33069;51.970;5.892;2023-09-19T03:16:46;13.80;81.30
47338;DHT22;33069;51.970;5.892;2023-09-19T03:19:32;13.70;81.30
47338;DHT22;33069;51.970;5.892;2023-09-19T03:22:19;13.70;81.20
47338;DHT22;33069;51.970;5.892;2023-09-19T03:25:06;13.70;80.60
47338;DHT22;33069;51.970;5.892;2023-09-19T03:27:53;13.70;80.50
47338;DHT22;33069;51.970;5.892;2023-09-19T03:30:43;13.70;80.00
47338;DHT22;33069;51.970;5.892;2023-09-19T03:33:29;13.60;80.30
47338;DHT22;33069;51.970;5.892;2023-09-19T03:36:19;13.60;80.20
47338;DHT22;33069;51.970;5.892;2023-09-19T03:39:05;13.60;80.30
47338;DHT22;33069;51.970;5.892;2023-09-19T03:41:51;13.50;80.20
47338;DHT22;33069;51.970;5.892;2023-09-19T03:44:37;13.50;80.30
47338;DHT22;33069;51.970;5.892;2023-09-19T03:47:23;13.40;80.30
47338;DHT22;33069;51.970;5.892;2023-09-19T03:50:09;13.40;80.20
47338;DHT22;33069;51.970;5.892;2023-09-19T03:53:01;13.30;80.10
47338;DHT22;33069;51.970;5.892;2023-09-19T03:55:47;13.40;79.60
47338;DHT22;33069;51.970;5.892;2023-09-19T03:58:33;13.30;79.70
47338;DHT22;33069;51.970;5.892;2023-09-19T04:01:24;13.30;79.50
47338;DHT22;33069;51.970;5.892;2023-09-19T04:04:11;13.30;79.40
47338;DHT22;33069;51.970;5.892;2023-09-19T04:06:58;13.30;79.40
47338;DHT22;33069;51.970;5.892;2023-09-19T04:09:44;13.30;79.10
47338;DHT22;33069;51.970;5.892;2023-09-19T04:12:31;13.30;79.00
47338;DHT22;33069;51.970;5.892;2023-09-19T04:15:18;13.30;79.20
47338;DHT22;33069;51.970;5.892;2023-09-19T04:18:04;13.10;79.40
47338;DHT22;33069;51.970;5.892;2023-09-19T04:20:50;13.20;78.80
47338;DHT22;33069;51.970;5.892;2023-09-19T04:23:36;13.30;78.80
47338;DHT22;33069;51.970;5.892;2023-09-19T04:26:22;13.30;78.90
47338;DHT22;33069;51.970;5.892;2023-09-19T04:29:08;13.30;78.30
47338;DHT22;33069;51.970;5.892;2023-09-19T04:31:56;13.30;78.00
47338;DHT22;33069;51.970;5.892;2023-09-19T04:34:45;13.30;78.10
47338;DHT22;33069;51.970;5.892;2023-09-19T04:37:31;13.30;77.90
47338;DHT22;33069;51.970;5.892;2023-09-19T04:40:18;13.30;77.80
47338;DHT22;33069;51.970;5.892;2023-09-19T04:43:04;13.30;77.50
47338;DHT22;33069;51.970;5.892;2023-09-19T04:45:51;13.30;77.70
47338;DHT22;33069;51.970;5.892;2023-09-19T04:48:41;13.30;77.60
47338;DHT22;33069;51.970;5.892;2023-09-19T04:51:27;13.30;77.60
47338;DHT22;33069;51.970;5.892;2023-09-19T04:54:16;13.40;77.60
47338;DHT22;33069;51.970;5.892;2023-09-19T04:57:04;13.30;77.50
47338;DHT22;33069;51.970;5.892;2023-09-19T04:59:51;13.40;77.80
47338;DHT22;33069;51.970;5.892;2023-09-19T05:02:37;13.40;77.70
47338;DHT22;33069;51.970;5.892;2023-09-19T05:05:23;13.30;78.10
47338;DHT22;33069;51.970;5.892;2023-09-19T05:08:11;13.30;78.10
47338;DHT22;33069;51.970;5.892;2023-09-19T05:10:57;13.30;77.90
47338;DHT22;33069;51.970;5.892;2023-09-19T05:13:43;13.40;77.90
47338;DHT22;33069;51.970;5.892;2023-09-19T05:16:29;13.30;78.40
47338;DHT22;33069;51.970;5.892;2023-09-19T05:19:19;13.40;78.50
47338;DHT22;33069;51.970;5.892;2023-09-19T05:22:05;13.40;78.10
47338;DHT22;33069;51.970;5.892;2023-09-19T05:24:52;13.40;78.50
47338;DHT22;33069;51.970;5.892;2023-09-19T05:27:38;13.40;78.50
47338;DHT22;33069;51.970;5.892;2023-09-19T05:30:26;13.40;78.30
47338;DHT22;33069;51.970;5.892;2023-09-19T05:33:13;13.50;78.40
47338;DHT22;33069;51.970;5.892;2023-09-19T05:35:59;13.50;78.50
47338;DHT22;33069;51.970;5.892;2023-09-19T05:38:45;13.50;78.60
47338;DHT22;33069;51.970;5.892;2023-09-19T05:41:35;13.50;78.60
47338;DHT22;33069;51.970;5.892;2023-09-19T05:44:22;13.60;78.50
47338;DHT22;33069;51.970;5.892;2023-09-19T05:47:08;13.60;78.60
47338;DHT22;33069;51.970;5.892;2023-09-19T05:49:54;13.60;78.70
47338;DHT22;33069;51.970;5.892;2023-09-19T05:52:40;13.60;78.80
47338;DHT22;33069;51.970;5.892;2023-09-19T05:55:28;13.70;78.90
47338;DHT22;33069;51.970;5.892;2023-09-19T05:58:15;13.60;79.40
47338;DHT22;33069;51.970;5.892;2023-09-19T06:01:03;13.60;79.10
47338;DHT22;33069;51.970;5.892;2023-09-19T06:03:49;13.60;79.20
47338;DHT22;33069;51.970;5.892;2023-09-19T06:06:36;13.60;79.40
47338;DHT22;33069;51.970;5.892;2023-09-19T06:09:25;13.70;79.30
47338;DHT22;33069;51.970;5.892;2023-09-19T06:12:13;13.80;79.20
47338;DHT22;33069;51.970;5.892;2023-09-19T06:15:04;13.80;79.20
47338;DHT22;33069;51.970;5.892;2023-09-19T06:17:55;13.80;79.10
47338;DHT22;33069;51.970;5.892;2023-09-19T06:20:42;13.80;79.50
47338;DHT22;33069;51.970;5.892;2023-09-19T06:23:30;13.80;79.90
47338;DHT22;33069;51.970;5.892;2023-09-19T06:26:16;13.80;79.70
47338;DHT22;33069;51.970;5.892;2023-09-19T06:29:03;13.90;79.70
47338;DHT22;33069;51.970;5.892;2023-09-19T06:31:50;13.90;79.70
47338;DHT22;33069;51.970;5.892;2023-09-19T06:34:37;13.90;79.90
47338;DHT22;33069;51.970;5.892;2023-09-19T06:37:29;14.00;80.00
47338;DHT22;33069;51.970;5.892;2023-09-19T06:40:15;14.00;79.90
47338;DHT22;33069;51.970;5.892;2023-09-19T06:43:03;14.20;79.80
47338;DHT22;33069;51.970;5.892;2023-09-19T06:45:50;14.20;79.90
47338;DHT22;33069;51.970;5.892;2023-09-19T06:48:37;14.20;79.70
47338;DHT22;33069;51.970;5.892;2023-09-19T06:51:23;14.20;80.00
47338;DHT22;33069;51.970;5.892;2023-09-19T06:54:10;14.30;79.60
47338;DHT22;33069;51.970;5.892;2023-09-19T06:56:56;14.40;79.50
47338;DHT22;33069;51.970;5.892;2023-09-19T06:59:43;14.40;79.80
47338;DHT22;33069;51.970;5.892;2023-09-19T07:02:30;14.50;79.70
47338;DHT22;33069;51.970;5.892;2023-09-19T07:05:16;14.50;79.80
47338;DHT22;33069;51.970;5.892;2023-09-19T07:08:06;14.50;79.50
47338;DHT22;33069;51.970;5.892;2023-09-19T07:10:52;14.60;79.50
47338;DHT22;33069;51.970;5.892;2023-09-19T07:13:38;14.60;79.70
47338;DHT22;33069;51.970;5.892;2023-09-19T07:16:25;14.70;79.80
47338;DHT22;33069;51.970;5.892;2023-09-19T07:19:15;14.70;79.60
47338;DHT22;33069;51.970;5.892;2023-09-19T07:22:01;14.70;79.20
47338;DHT22;33069;51.970;5.892;2023-09-19T07:24:48;14.80;79.10
47338;DHT22;33069;51.970;5.892;2023-09-19T07:27:34;14.80;79.20
47338;DHT22;33069;51.970;5.892;2023-09-19T07:30:20;14.90;79.00
47338;DHT22;33069;51.970;5.892;2023-09-19T07:33:06;15.00;79.10
47338;DHT22;33069;51.970;5.892;2023-09-19T07:35:52;15.10;78.80
47338;DHT22;33069;51.970;5.892;2023-09-19T07:38:39;15.10;78.60
47338;DHT22;33069;51.970;5.892;2023-09-19T07:41:25;15.20;78.00
47338;DHT22;33069;51.970;5.892;2023-09-19T07:44:11;15.20;78.10
47338;DHT22;33069;51.970;5.892;2023-09-19T07:46:57;15.30;77.40
47338;DHT22;33069;51.970;5.892;2023-09-19T07:49:43;15.20;77.50
47338;DHT22;33069;51.970;5.892;2023-09-19T07:52:33;15.30;77.40
47338;DHT22;33069;51.970;5.892;2023-09-19T07:55:20;15.30;77.40
47338;DHT22;33069;51.970;5.892;2023-09-19T07:58:09;15.40;77.60
47338;DHT22;33069;51.970;5.892;2023-09-19T08:00:55;15.40;77.40
47338;DHT22;33069;51.970;5.892;2023-09-19T08:03:41;15.40;77.70
47338;DHT22;33069;51.970;5.892;2023-09-19T08:06:28;15.40;77.50
47338;DHT22;33069;51.970;5.892;2023-09-19T08:09:15;15.60;77.50
47338;DHT22;33069;51.970;5.892;2023-09-19T08:12:07;15.60;77.30
47338;DHT22;33069;51.970;5.892;2023-09-19T08:14:56;15.60;76.80
47338;DHT22;33069;51.970;5.892;2023-09-19T08:17:42;15.70;77.10
47338;DHT22;33069;51.970;5.892;2023-09-19T08:20:28;15.70;77.00
47338;DHT22;33069;51.970;5.892;2023-09-19T08:23:14;15.70;76.80
47338;DHT22;33069;51.970;5.892;2023-09-19T08:26:02;15.60;77.30
47338;DHT22;33069;51.970;5.892;2023-09-19T08:28:53;15.80;77.00
47338;DHT22;33069;51.970;5.892;2023-09-19T08:31:39;15.80;76.90
47338;DHT22;33069;51.970;5.892;2023-09-19T08:34:25;16.00;76.70
47338;DHT22;33069;51.970;5.892;2023-09-19T08:37:11;16.20;76.60
47338;DHT22;33069;51.970;5.892;2023-09-19T08:39:57;16.10;76.20
47338;DHT22;33069;51.970;5.892;2023-09-19T08:42:56;16.30;76.00
47338;DHT22;33069;51.970;5.892;2023-09-19T08:45:42;16.40;75.50
47338;DHT22;33069;51.970;5.892;2023-09-19T08:48:29;16.40;76.00
47338;DHT22;33069;51.970;5.892;2023-09-19T08:51:24;16.40;75.80
47338;DHT22;33069;51.970;5.892;2023-09-19T08:54:24;16.40;75.50
47338;DHT22;33069;51.970;5.892;2023-09-19T08:57:12;16.50;75.30
47338;DHT22;33069;51.970;5.892;2023-09-19T09:00:04;16.60;75.00
47338;DHT22;33069;51.970;5.892;2023-09-19T09:02:58;16.70;75.00
47338;DHT22;33069;51.970;5.892;2023-09-19T09:05:44;16.70;75.40
47338;DHT22;33069;51.970;5.892;2023-09-19T09:08:33;16.70;74.80
47338;DHT22;33069;51.970;5.892;2023-09-19T09:11:19;16.80;74.30
47338;DHT22;33069;51.970;5.892;2023-09-19T09:14:09;16.70;73.20
47338;DHT22;33069;51.970;5.892;2023-09-19T09:16:55;16.80;73.60
47338;DHT22;33069;51.970;5.892;2023-09-19T09:19:44;16.70;73.30
47338;DHT22;33069;51.970;5.892;2023-09-19T09:22:30;16.90;72.80
47338;DHT22;33069;51.970;5.892;2023-09-19T09:25:17;16.90;72.80
47338;DHT22;33069;51.970;5.892;2023-09-19T09:28:04;16.90;71.80
47338;DHT22;33069;51.970;5.892;2023-09-19T09:30:50;17.20;71.10
47338;DHT22;33069;51.970;5.892;2023-09-19T09:33:36;17.30;71.60
47338;DHT22;33069;51.970;5.892;2023-09-19T09:36:37;17.40;70.40
47338;DHT22;33069;51.970;5.892;2023-09-19T09:39:30;17.40;69.80
47338;DHT22;33069;51.970;5.892;2023-09-19T09:42:36;17.60;68.40
47338;DHT22;33069;51.970;5.892;2023-09-19T09:45:24;17.70;69.20
47338;DHT22;33069;51.970;5.892;2023-09-19T09:48:24;17.60;68.80
47338;DHT22;33069;51.970;5.892;2023-09-19T09:51:30;17.60;68.30
47338;DHT22;33069;51.970;5.892;2023-09-19T09:54:21;17.60;68.80
47338;DHT22;33069;51.970;5.892;2023-09-19T09:57:09;17.80;68.20
47338;DHT22;33069;51.970;5.892;2023-09-19T10:00:10;17.80;67.80
47338;DHT22;33069;51.970;5.892;2023-09-19T10:02:59;18.00;68.60
47338;DHT22;33069;51.970;5.892;2023-09-19T10:05:46;17.90;67.20
47338;DHT22;33069;51.970;5.892;2023-09-19T10:08:40;17.80;68.20
47338;DHT22;33069;51.970;5.892;2023-09-19T10:11:47;17.90;67.50
47338;DHT22;33069;51.970;5.892;2023-09-19T10:14:40;18.00;68.00
47338;DHT22;33069;51.970;5.892;2023-09-19T10:17:29;18.10;67.40
47338;DHT22;33069;51.970;5.892;2023-09-19T10:20:17;18.40;67.80
47338;DHT22;33069;51.970;5.892;2023-09-19T10:23:20;18.40;67.20
47338;DHT22;33069;51.970;5.892;2023-09-19T10:26:09;18.50;66.90
47338;DHT22;33069;51.970;5.892;2023-09-19T10:28:56;18.50;65.40
47338;DHT22;33069;51.970;5.892;2023-09-19T10:31:44;18.30;65.20
47338;DHT22;33069;51.970;5.892;2023-09-19T10:34:35;18.20;67.20
47338;DHT22;33069;51.970;5.892;2023-09-19T10:37:24;18.30;65.90
47338;DHT22;33069;51.970;5.892;2023-09-19T10:40:11;18.60;65.70
47338;DHT22;33069;51.970;5.892;2023-09-19T10:43:05;18.50;66.30
47338;DHT22;33069;51.970;5.892;2023-09-19T10:45:51;18.70;65.50
47338;DHT22;33069;51.970;5.892;2023-09-19T10:48:40;18.70;65.90
47338;DHT22;33069;51.970;5.892;2023-09-19T10:51:33;18.80;66.30
47338;DHT22;33069;51.970;5.892;2023-09-19T10:54:27;18.90;65.00
47338;DHT22;33069;51.970;5.892;2023-09-19T10:57:20;19.00;65.30
47338;DHT22;33069;51.970;5.892;2023-09-19T11:00:08;18.90;66.10
47338;DHT22;33069;51.970;5.892;2023-09-19T11:06:08;18.80;65.60
47338;DHT22;33069;51.970;5.892;2023-09-19T11:09:03;18.70;66.10
47338;DHT22;33069;51.970;5.892;2023-09-19T11:11:56;18.60;66.20
47338;DHT22;33069;51.970;5.892;2023-09-19T11:14:43;18.60;65.80
47338;DHT22;33069;51.970;5.892;2023-09-19T11:17:34;18.70;66.00
47338;DHT22;33069;51.970;5.892;2023-09-19T11:20:21;18.70;65.80
47338;DHT22;33069;51.970;5.892;2023-09-19T11:23:25;18.70;66.30
47338;DHT22;33069;51.970;5.892;2023-09-19T11:26:41;18.70;65.60
47338;DHT22;33069;51.970;5.892;2023-09-19T11:29:34;18.80;64.90
47338;DHT22;33069;51.970;5.892;2023-09-19T11:36:11;18.90;64.60
47338;DHT22;33069;51.970;5.892;2023-09-19T11:39:05;18.90;64.60
47338;DHT22;33069;51.970;5.892;2023-09-19T11:41:54;18.90;64.80
47338;DHT22;33069;51.970;5.892;2023-09-19T11:44:42;18.80;64.90
47338;DHT22;33069;51.970;5.892;2023-09-19T11:47:30;19.00;63.60
47338;DHT22;33069;51.970;5.892;2023-09-19T11:50:20;19.00;64.20
47338;DHT22;33069;51.970;5.892;2023-09-19T11:53:06;19.30;63.00
47338;DHT22;33069;51.970;5.892;2023-09-19T11:55:53;19.20;63.60
47338;DHT22;33069;51.970;5.892;2023-09-19T11:58:41;19.30;62.20
47338;DHT22;33069;51.970;5.892;2023-09-19T12:01:32;19.40;62.40
47338;DHT22;33069;51.970;5.892;2023-09-19T12:04:21;19.30;62.00
47338;DHT22;33069;51.970;5.892;2023-09-19T12:07:19;19.60;62.20
47338;DHT22;33069;51.970;5.892;2023-09-19T12:10:06;19.70;61.30
47338;DHT22;33069;51.970;5.892;2023-09-19T12:12:54;19.70;61.40
47338;DHT22;33069;51.970;5.892;2023-09-19T12:15:42;19.70;60.80
47338;DHT22;33069;51.970;5.892;2023-09-19T12:18:31;19.80;62.00
47338;DHT22;33069;51.970;5.892;2023-09-19T12:21:29;19.70;61.30
47338;DHT22;33069;51.970;5.892;2023-09-19T12:24:17;19.70;60.70
47338;DHT22;33069;51.970;5.892;2023-09-19T12:27:06;19.70;60.50
47338;DHT22;33069;51.970;5.892;2023-09-19T12:29:53;19.70;60.90
47338;DHT22;33069;51.970;5.892;2023-09-19T12:32:45;20.00;60.70
47338;DHT22;33069;51.970;5.892;2023-09-19T12:35:33;20.10;59.00
47338;DHT22;33069;51.970;5.892;2023-09-19T12:38:28;20.00;60.00
47338;DHT22;33069;51.970;5.892;2023-09-19T12:41:15;19.70;59.20
47338;DHT22;33069;51.970;5.892;2023-09-19T12:44:01;19.50;60.00
47338;DHT22;33069;51.970;5.892;2023-09-19T12:46:48;19.40;60.10
47338;DHT22;33069;51.970;5.892;2023-09-19T12:49:34;19.50;60.80
47338;DHT22;33069;51.970;5.892;2023-09-19T12:52:20;19.40;60.70
47338;DHT22;33069;51.970;5.892;2023-09-19T12:55:06;19.30;61.30
47338;DHT22;33069;51.970;5.892;2023-09-19T13:00:55;19.40;61.40
47338;DHT22;33069;51.970;5.892;2023-09-19T13:03:41;19.30;61.70
47338;DHT22;33069;51.970;5.892;2023-09-19T13:06:37;19.30;61.80
47338;DHT22;33069;51.970;5.892;2023-09-19T13:09:24;19.30;61.60
47338;DHT22;33069;51.970;5.892;2023-09-19T13:12:37;19.30;61.60
47338;DHT22;33069;51.970;5.892;2023-09-19T13:15:25;19.30;61.90
47338;DHT22;33069;51.970;5.892;2023-09-19T13:18:15;19.30;61.80
47338;DHT22;33069;51.970;5.892;2023-09-19T13:21:09;19.40;61.70
47338;DHT22;33069;51.970;5.892;2023-09-19T13:24:21;19.60;61.00
47338;DHT22;33069;51.970;5.892;2023-09-19T13:27:08;19.60;61.30
47338;DHT22;33069;51.970;5.892;2023-09-19T13:29:54;19.50;61.30
47338;DHT22;33069;51.970;5.892;2023-09-19T13:32:41;19.50;61.60
47338;DHT22;33069;51.970;5.892;2023-09-19T13:35:28;19.40;62.50
47338;DHT22;33069;51.970;5.892;2023-09-19T13:38:14;19.40;62.30
47338;DHT22;33069;51.970;5.892;2023-09-19T13:41:00;19.30;61.80
47338;DHT22;33069;51.970;5.892;2023-09-19T13:43:47;19.30;62.90
47338;DHT22;33069;51.970;5.892;2023-09-19T13:46:34;19.30;62.60
47338;DHT22;33069;51.970;5.892;2023-09-19T13:49:21;19.30;63.30
47338;DHT22;33069;51.970;5.892;2023-09-19T13:52:09;19.30;62.60
47338;DHT22;33069;51.970;5.892;2023-09-19T13:54:55;19.40;62.40
47338;DHT22;33069;51.970;5.892;2023-09-19T13:57:44;19.30;63.20
47338;DHT22;33069;51.970;5.892;2023-09-19T14:00:30;19.50;63.40
47338;DHT22;33069;51.970;5.892;2023-09-19T14:03:16;19.60;62.40
47338;DHT22;33069;51.970;5.892;2023-09-19T14:06:02;19.70;62.90
47338;DHT22;33069;51.970;5.892;2023-09-19T14:08:48;19.70;61.40
47338;DHT22;33069;51.970;5.892;2023-09-19T14:11:35;20.00;61.10
47338;DHT22;33069;51.970;5.892;2023-09-19T14:14:21;20.00;60.80
47338;DHT22;33069;51.970;5.892;2023-09-19T14:17:07;20.30;60.70
47338;DHT22;33069;51.970;5.892;2023-09-19T14:19:54;20.50;59.80
47338;DHT22;33069;51.970;5.892;2023-09-19T14:22:41;20.40;59.90
47338;DHT22;33069;51.970;5.892;2023-09-19T14:25:27;20.10;60.10
47338;DHT22;33069;51.970;5.892;2023-09-19T14:28:14;20.10;59.40
47338;DHT22;33069;51.970;5.892;2023-09-19T14:31:05;20.30;59.90
47338;DHT22;33069;51.970;5.892;2023-09-19T14:33:55;20.00;60.80
47338;DHT22;33069;51.970;5.892;2023-09-19T14:36:45;19.90;61.60
47338;DHT22;33069;51.970;5.892;2023-09-19T14:39:31;19.80;62.00
47338;DHT22;33069;51.970;5.892;2023-09-19T14:42:17;19.70;60.60
47338;DHT22;33069;51.970;5.892;2023-09-19T14:45:03;19.70;61.70
47338;DHT22;33069;51.970;5.892;2023-09-19T14:47:51;19.80;61.40
47338;DHT22;33069;51.970;5.892;2023-09-19T14:50:40;19.80;61.80
47338;DHT22;33069;51.970;5.892;2023-09-19T14:53:26;19.70;61.60
47338;DHT22;33069;51.970;5.892;2023-09-19T14:56:13;19.60;61.70
47338;DHT22;33069;51.970;5.892;2023-09-19T14:59:04;19.60;61.90
47338;DHT22;33069;51.970;5.892;2023-09-19T15:01:50;19.50;62.20
47338;DHT22;33069;51.970;5.892;2023-09-19T15:04:36;19.60;62.60
47338;DHT22;33069;51.970;5.892;2023-09-19T15:07:26;19.60;63.20
47338;DHT22;33069;51.970;5.892;2023-09-19T15:10:14;19.40;62.70
47338;DHT22;33069;51.970;5.892;2023-09-19T15:13:02;19.40;62.50
47338;DHT22;33069;51.970;5.892;2023-09-19T15:15:48;19.30;63.20
47338;DHT22;33069;51.970;5.892;2023-09-19T15:18:34;19.30;63.20
47338;DHT22;33069;51.970;5.892;2023-09-19T15:21:23;19.20;63.90
47338;DHT22;33069;51.970;5.892;2023-09-19T15:24:10;19.30;63.70
47338;DHT22;33069;51.970;5.892;2023-09-19T15:26:56;19.20;63.60
47338;DHT22;33069;51.970;5.892;2023-09-19T15:29:42;19.20;64.00
47338;DHT22;33069;51.970;5.892;2023-09-19T15:32:29;19.30;64.10
47338;DHT22;33069;51.970;5.892;2023-09-19T15:35:15;19.20;64.00
47338;DHT22;33069;51.970;5.892;2023-09-19T15:38:03;19.20;64.50
47338;DHT22;33069;51.970;5.892;2023-09-19T15:40:49;19.20;64.60
47338;DHT22;33069;51.970;5.892;2023-09-19T15:43:35;19.20;65.00
47338;DHT22;33069;51.970;5.892;2023-09-19T15:46:23;19.10;64.90
47338;DHT22;33069;51.970;5.892;2023-09-19T15:49:09;19.00;65.10
47338;DHT22;33069;51.970;5.892;2023-09-19T15:51:55;19.00;65.00
47338;DHT22;33069;51.970;5.892;2023-09-19T15:54:41;19.00;65.00
47338;DHT22;33069;51.970;5.892;2023-09-19T15:57:30;19.10;65.20
47338;DHT22;33069;51.970;5.892;2023-09-19T16:00:16;19.10;64.80
47338;DHT22;33069;51.970;5.892;2023-09-19T16:03:03;19.00;65.50
47338;DHT22;33069;51.970;5.892;2023-09-19T16:05:49;19.00;65.60
47338;DHT22;33069;51.970;5.892;2023-09-19T16:08:35;19.00;64.90
47338;DHT22;33069;51.970;5.892;2023-09-19T16:11:26;19.00;65.30
47338;DHT22;33069;51.970;5.892;2023-09-19T16:14:12;18.90;66.00
47338;DHT22;33069;51.970;5.892;2023-09-19T16:16:59;19.00;65.40
47338;DHT22;33069;51.970;5.892;2023-09-19T16:19:45;19.10;65.20
47338;DHT22;33069;51.970;5.892;2023-09-19T16:22:33;19.10;65.50
47338;DHT22;33069;51.970;5.892;2023-09-19T16:25:19;19.00;65.60
47338;DHT22;33069;51.970;5.892;2023-09-19T16:28:05;19.00;65.60
47338;DHT22;33069;51.970;5.892;2023-09-19T16:30:51;19.00;65.90
47338;DHT22;33069;51.970;5.892;2023-09-19T16:33:39;18.90;66.00
47338;DHT22;33069;51.970;5.892;2023-09-19T16:36:28;18.90;66.80
47338;DHT22;33069;51.970;5.892;2023-09-19T16:39:14;18.80;67.10
47338;DHT22;33069;51.970;5.892;2023-09-19T16:42:01;18.80;67.50
47338;DHT22;33069;51.970;5.892;2023-09-19T16:44:47;18.80;66.80
47338;DHT22;33069;51.970;5.892;2023-09-19T16:47:33;18.80;67.10
47338;DHT22;33069;51.970;5.892;2023-09-19T16:50:19;18.80;67.40
47338;DHT22;33069;51.970;5.892;2023-09-19T16:53:05;18.80;67.40
47338;DHT22;33069;51.970;5.892;2023-09-19T16:55:50;18.80;67.00
47338;DHT22;33069;51.970;5.892;2023-09-19T16:58:37;18.80;67.20
47338;DHT22;33069;51.970;5.892;2023-09-19T17:01:24;18.80;67.20
47338;DHT22;33069;51.970;5.892;2023-09-19T17:04:11;18.80;67.60
47338;DHT22;33069;51.970;5.892;2023-09-19T17:06:57;18.80;67.50
47338;DHT22;33069;51.970;5.892;2023-09-19T17:09:43;18.70;67.70
47338;DHT22;33069;51.970;5.892;2023-09-19T17:12:29;18.70;67.90
47338;DHT22;33069;51.970;5.892;2023-09-19T17:15:15;18.80;67.70
47338;DHT22;33069;51.970;5.892;2023-09-19T17:18:01;18.80;68.00
47338;DHT22;33069;51.970;5.892;2023-09-19T17:20:47;18.80;67.60
47338;DHT22;33069;51.970;5.892;2023-09-19T17:23:33;18.70;67.80
47338;DHT22;33069;51.970;5.892;2023-09-19T17:26:19;18.70;67.50
47338;DHT22;33069;51.970;5.892;2023-09-19T17:29:10;18.70;68.30
47338;DHT22;33069;51.970;5.892;2023-09-19T17:31:57;18.70;68.40
47338;DHT22;33069;51.970;5.892;2023-09-19T17:34:47;18.60;68.70
47338;DHT22;33069;51.970;5.892;2023-09-19T17:37:35;18.60;69.10
47338;DHT22;33069;51.970;5.892;2023-09-19T17:40:24;18.40;70.20
47338;DHT22;33069;51.970;5.892;2023-09-19T17:43:10;18.40;70.40
47338;DHT22;33069;51.970;5.892;2023-09-19T17:45:56;18.40;70.40
47338;DHT22;33069;51.970;5.892;2023-09-19T17:48:49;18.30;71.00
47338;DHT22;33069;51.970;5.892;2023-09-19T17:51:36;18.20;71.60
47338;DHT22;33069;51.970;5.892;2023-09-19T17:54:22;18.20;72.40
47338;DHT22;33069;51.970;5.892;2023-09-19T17:57:09;18.10;72.30
47338;DHT22;33069;51.970;5.892;2023-09-19T17:59:54;18.10;72.00
47338;DHT22;33069;51.970;5.892;2023-09-19T18:02:40;18.00;72.40